createdAt,value
2022-08-17T00:01:31.445Z,14.73
2022-08-17T00:04:19.058Z,14.63
2022-08-17T00:06:46.065Z,14.90
2022-08-17T00:09:18.925Z,14.60
2022-08-17T00:12:35.476Z,14.90
2022-08-17T00:14:36.014Z,14.40
2022-08-17T00:17:04.570Z,13.57
2022-08-17T00:19:32.603Z,13.47
2022-08-17T00:22:33.912Z,13.43
2022-08-17T00:24:47.091Z,12.90
2022-08-17T00:27:13.536Z,13.13
2022-08-17T00:29:40.077Z,13.27
2022-08-17T00:33:15.072Z,12.80
2022-08-17T00:34:55.371Z,13.23
2022-08-17T00:37:21.798Z,13.00
2022-08-17T00:39:48.239Z,13.87
2022-08-17T00:42:18.169Z,12.73
2022-08-17T00:44:45.331Z,12.80
2022-08-17T00:47:11.801Z,12.80
2022-08-17T00:49:38.227Z,12.87
2022-08-17T00:52:15.284Z,13.10
2022-08-17T00:54:44.802Z,13.30
2022-08-17T00:57:18.040Z,12.97
2022-08-17T00:59:51.111Z,13.10
2022-08-17T01:02:34.404Z,13.33
2022-08-17T01:05:10.616Z,14.20
2022-08-17T01:07:37.965Z,12.57
2022-08-17T01:10:07.520Z,13.80
2022-08-17T01:12:54.192Z,13.50
2022-08-17T01:15:20.615Z,14.37
2022-08-17T01:17:47.810Z,13.60
2022-08-17T01:20:14.352Z,12.93
2022-08-17T01:22:40.905Z,13.83
2022-08-17T01:25:08.840Z,13.97
2022-08-17T01:27:36.927Z,13.23
2022-08-17T01:30:57.465Z,12.60
2022-08-17T01:32:54.988Z,13.70
2022-08-17T01:35:21.416Z,13.60
2022-08-17T01:37:47.946Z,13.67
2022-08-17T01:40:33.490Z,13.23
2022-08-17T01:43:19.945Z,13.20
2022-08-17T01:45:48.847Z,12.83
2022-08-17T01:48:34.338Z,12.93
2022-08-17T01:51:01.226Z,13.23
2022-08-17T01:53:36.641Z,12.73
2022-08-17T01:56:09.124Z,13.20
2022-08-17T01:58:36.817Z,13.17
2022-08-17T02:01:05.556Z,13.90
2022-08-17T02:03:34.500Z,13.13
2022-08-17T02:06:01.947Z,12.80
2022-08-17T02:08:36.989Z,13.17
2022-08-17T02:11:11.557Z,12.93
2022-08-17T02:13:38.686Z,12.87
2022-08-17T02:16:05.520Z,13.97
2022-08-17T02:18:31.931Z,13.30
2022-08-17T02:20:58.574Z,13.30
2022-08-17T02:23:28.662Z,12.80
2022-08-17T02:25:57.579Z,12.93
2022-08-17T02:28:23.986Z,13.80
2022-08-17T02:31:02.028Z,13.73
2022-08-17T02:33:42.775Z,13.50
2022-08-17T02:36:12.573Z,13.87
2022-08-17T02:38:40.649Z,13.47
2022-08-17T02:41:07.318Z,13.07
2022-08-17T02:43:34.876Z,12.90
2022-08-17T02:46:01.326Z,13.27
2022-08-17T02:48:31.238Z,14.90
2022-08-17T02:50:59.114Z,14.03
2022-08-17T02:53:25.911Z,13.83
2022-08-17T02:55:52.576Z,14.10
2022-08-17T02:58:34.326Z,14.30
2022-08-17T03:01:06.287Z,14.13
2022-08-17T03:03:33.058Z,14.33
2022-08-17T03:05:59.946Z,13.40
2022-08-17T03:08:26.347Z,13.00
2022-08-17T03:10:53.221Z,13.60
2022-08-17T03:13:20.036Z,12.73
2022-08-17T03:15:47.961Z,13.50
2022-08-17T03:18:24.308Z,13.77
2022-08-17T03:20:52.479Z,13.67
2022-08-17T03:23:18.912Z,15.07
2022-08-17T03:25:53.139Z,13.73
2022-08-17T03:28:20.829Z,15.43
2022-08-17T03:30:47.269Z,14.03
2022-08-17T03:33:14.668Z,14.37
2022-08-17T03:35:42.052Z,15.90
2022-08-17T03:38:10.440Z,14.57
2022-08-17T03:40:56.997Z,16.27
2022-08-17T03:43:24.151Z,15.20
2022-08-17T03:46:26.843Z,15.67
2022-08-17T03:49:13.879Z,14.60
2022-08-17T03:51:59.323Z,15.47
2022-08-17T03:54:44.450Z,14.90
2022-08-17T03:57:11.692Z,15.23
2022-08-17T03:59:39.126Z,14.73
2022-08-17T04:02:09.638Z,14.87
2022-08-17T04:04:37.124Z,14.97
2022-08-17T04:07:04.074Z,14.43
2022-08-17T04:09:30.473Z,15.77
2022-08-17T04:11:57.294Z,15.37
2022-08-17T04:14:31.095Z,14.63
2022-08-17T04:16:57.520Z,15.73
2022-08-17T04:19:23.922Z,14.00
2022-08-17T04:21:50.350Z,15.13
2022-08-17T04:24:16.782Z,15.40
2022-08-17T04:26:52.657Z,15.40
2022-08-17T04:29:21.327Z,15.60
2022-08-17T04:31:48.049Z,14.50
2022-08-17T04:34:14.563Z,13.37
2022-08-17T04:36:47.980Z,13.33
2022-08-17T04:39:16.808Z,12.07
2022-08-17T04:42:01.597Z,13.50
2022-08-17T04:44:37.559Z,13.27
2022-08-17T04:47:04.540Z,14.40
2022-08-17T04:49:30.998Z,13.40
2022-08-17T04:52:00.086Z,13.70
2022-08-17T04:54:29.107Z,13.60
2022-08-17T04:56:55.515Z,13.57
2022-08-17T04:59:22.587Z,11.83
2022-08-17T05:01:51.543Z,13.00
2022-08-17T05:04:33.788Z,12.33
2022-08-17T05:07:01.121Z,12.70
2022-08-17T05:09:27.520Z,12.93
2022-08-17T05:11:55.317Z,12.03
2022-08-17T05:14:32.895Z,11.67
2022-08-17T05:17:01.217Z,10.67
2022-08-17T05:19:28.612Z,11.10
2022-08-17T05:21:55.017Z,11.50
2022-08-17T05:24:38.315Z,10.70
2022-08-17T05:27:06.549Z,11.90
2022-08-17T05:29:35.179Z,12.33
2022-08-17T05:32:38.805Z,11.10
2022-08-17T05:34:59.881Z,11.77
2022-08-17T05:37:26.311Z,11.43
2022-08-17T05:39:54.103Z,11.10
2022-08-17T05:42:21.199Z,10.80
2022-08-17T05:44:47.638Z,11.33
2022-08-17T05:47:14.180Z,11.47
2022-08-17T05:49:40.749Z,11.93
2022-08-17T05:52:13.209Z,11.53
2022-08-17T05:55:10.505Z,11.53
2022-08-17T05:57:47.502Z,11.23
2022-08-17T06:00:37.177Z,12.23
2022-08-17T06:03:18.848Z,12.80
2022-08-17T06:06:19.415Z,11.97
2022-08-17T06:09:01.424Z,10.73
2022-08-17T06:11:44.443Z,11.67
2022-08-17T06:14:38.700Z,12.37
2022-08-17T06:17:11.126Z,13.00
2022-08-17T06:19:59.682Z,12.90
2022-08-17T06:22:36.267Z,13.40
2022-08-17T06:25:10.204Z,13.27
2022-08-17T06:27:54.085Z,12.37
2022-08-17T06:30:27.085Z,13.97
2022-08-17T06:32:59.552Z,12.83
2022-08-17T06:35:37.096Z,13.20
2022-08-17T06:38:37.607Z,13.77
2022-08-17T06:41:37.794Z,13.10
2022-08-17T06:44:49.876Z,14.17
2022-08-17T06:47:28.863Z,14.47
2022-08-17T06:50:17.256Z,14.83
2022-08-17T06:53:11.079Z,13.60
2022-08-17T06:56:06.639Z,13.27
2022-08-17T06:58:35.759Z,12.93
2022-08-17T07:01:12.958Z,14.60
2022-08-17T07:04:11.999Z,13.23
2022-08-17T07:06:51.092Z,12.83
2022-08-17T07:09:26.433Z,13.30
2022-08-17T07:11:57.706Z,13.63
2022-08-17T07:14:51.655Z,13.10
2022-08-17T07:17:20.401Z,13.77
2022-08-17T07:19:49.725Z,13.93
2022-08-17T07:22:27.841Z,12.93
2022-08-17T07:24:58.410Z,11.83
2022-08-17T07:27:28.509Z,11.87
2022-08-17T07:30:10.359Z,11.37
2022-08-17T07:32:45.180Z,12.07
2022-08-17T07:35:15.477Z,12.23
2022-08-17T07:37:55.635Z,13.27
2022-08-17T07:40:24.642Z,11.97
2022-08-17T07:43:04.966Z,12.00
2022-08-17T07:45:50.734Z,13.23
2022-08-17T07:48:22.013Z,11.17
2022-08-17T07:50:50.716Z,13.43
2022-08-17T07:53:19.854Z,11.87
2022-08-17T07:55:46.553Z,12.80
2022-08-17T07:58:19.368Z,13.67
2022-08-17T08:00:46.686Z,14.90
2022-08-17T08:03:20.307Z,14.57
2022-08-17T08:05:56.710Z,14.40
2022-08-17T08:08:35.318Z,14.60
2022-08-17T08:11:09.584Z,14.57
2022-08-17T08:13:42.540Z,14.80
2022-08-17T08:16:19.978Z,14.00
2022-08-17T08:18:55.676Z,13.93
2022-08-17T08:21:48.713Z,13.97
2022-08-17T08:24:36.641Z,15.30
2022-08-17T08:27:42.276Z,14.50
2022-08-17T08:30:14.368Z,14.20
2022-08-17T08:33:12.507Z,14.67
2022-08-17T08:35:49.566Z,13.73
2022-08-17T08:38:15.895Z,14.97
2022-08-17T08:41:10.650Z,13.77
2022-08-17T08:43:50.854Z,14.27
2022-08-17T08:46:36.438Z,13.10
2022-08-17T08:49:33.861Z,14.70
2022-08-17T08:52:22.778Z,14.03
2022-08-17T08:54:59.562Z,15.47
2022-08-17T08:57:37.975Z,14.27
2022-08-17T09:00:20.260Z,14.50
2022-08-17T09:03:06.181Z,14.67
2022-08-17T09:05:52.795Z,14.10
2022-08-17T09:08:44.185Z,15.57
2022-08-17T09:12:01.070Z,15.13
2022-08-17T09:15:17.663Z,17.87
2022-08-17T09:19:01.332Z,15.23
2022-08-17T09:21:01.320Z,14.97
2022-08-17T09:23:39.309Z,16.33
2022-08-17T09:26:24.168Z,16.57
2022-08-17T09:28:53.118Z,17.43
2022-08-17T09:31:26.801Z,17.50
2022-08-17T09:33:59.010Z,16.63
2022-08-17T09:36:31.188Z,15.90
2022-08-17T09:39:02.674Z,16.70
2022-08-17T09:41:49.177Z,17.93
2022-08-17T09:44:23.180Z,16.33
2022-08-17T09:47:01.649Z,15.40
2022-08-17T09:49:36.881Z,13.47
2022-08-17T09:52:22.952Z,15.73
2022-08-17T09:54:51.611Z,14.70
2022-08-17T09:57:32.734Z,15.50
2022-08-17T10:00:28.525Z,14.13
2022-08-17T10:03:30.274Z,14.00
2022-08-17T10:06:02.700Z,14.27
2022-08-17T10:08:57.243Z,13.60
2022-08-17T10:11:57.843Z,13.47
2022-08-17T10:14:37.775Z,12.67
2022-08-17T10:17:13.261Z,12.13
2022-08-17T10:20:03.062Z,11.20
2022-08-17T10:22:56.302Z,11.80
2022-08-17T10:25:54.667Z,12.40
2022-08-17T10:28:30.304Z,12.17
2022-08-17T10:31:31.089Z,11.73
2022-08-17T10:34:06.597Z,12.50
2022-08-17T10:36:54.918Z,12.43
2022-08-17T10:39:36.624Z,12.80
2022-08-17T10:42:30.400Z,13.13
2022-08-17T10:45:05.303Z,12.90
2022-08-17T10:48:05.341Z,11.00
2022-08-17T10:50:57.644Z,11.50
2022-08-17T10:53:48.409Z,13.47
2022-08-17T10:56:15.453Z,12.83
2022-08-17T10:59:00.457Z,12.93
2022-08-17T11:01:33.006Z,13.27
2022-08-17T11:04:19.587Z,11.20
2022-08-17T11:07:02.151Z,12.77
2022-08-17T11:10:03.386Z,12.93
2022-08-17T11:13:03.865Z,12.60
2022-08-17T11:15:52.421Z,10.20
2022-08-17T11:18:29.121Z,12.07
2022-08-17T11:21:43.236Z,10.87
2022-08-17T11:24:24.111Z,11.03
2022-08-17T11:27:18.886Z,10.90
2022-08-17T11:30:01.513Z,11.83
2022-08-17T11:32:37.248Z,12.50
2022-08-17T11:35:21.893Z,10.67
2022-08-17T11:38:16.379Z,10.20
2022-08-17T11:41:15.288Z,9.90
2022-08-17T11:44:02.058Z,11.30
2022-08-17T11:46:57.248Z,10.47
2022-08-17T11:50:11.634Z,10.77
2022-08-17T11:52:42.372Z,11.07
2022-08-17T11:55:39.330Z,10.80
2022-08-17T11:58:37.375Z,12.60
2022-08-17T12:01:13.633Z,13.57
2022-08-17T12:03:54.118Z,14.50
2022-08-17T12:06:24.687Z,12.23
2022-08-17T12:09:02.326Z,12.57
2022-08-17T12:11:55.575Z,13.20
2022-08-17T12:14:51.358Z,11.73
2022-08-17T12:17:26.528Z,12.27
2022-08-17T12:20:15.469Z,11.23
2022-08-17T12:22:56.292Z,10.60
2022-08-17T12:25:46.445Z,12.47
2022-08-17T12:28:31.987Z,13.43
2022-08-17T12:31:02.729Z,11.83
2022-08-17T12:33:29.619Z,12.30
2022-08-17T12:36:05.558Z,13.17
2022-08-17T12:38:37.829Z,11.20
2022-08-17T12:41:27.104Z,11.23
2022-08-17T12:44:02.020Z,12.67
2022-08-17T12:46:33.498Z,12.30
2022-08-17T12:49:35.503Z,11.50
2022-08-17T12:52:19.785Z,12.70
2022-08-17T12:55:06.910Z,14.03
2022-08-17T12:57:39.694Z,12.67
2022-08-17T13:00:21.766Z,12.63
2022-08-17T13:02:57.793Z,13.00
2022-08-17T13:05:28.129Z,13.77
2022-08-17T13:07:56.520Z,14.87
2022-08-17T13:10:35.288Z,13.70
2022-08-17T13:13:05.377Z,14.23
2022-08-17T13:15:44.839Z,13.97
2022-08-17T13:18:38.798Z,15.50
2022-08-17T13:21:11.240Z,14.33
2022-08-17T13:23:38.032Z,13.00
2022-08-17T13:26:15.823Z,13.77
2022-08-17T13:28:49.715Z,14.13
2022-08-17T13:31:28.260Z,14.23
2022-08-17T13:34:13.489Z,13.97
2022-08-17T13:36:41.298Z,13.77
2022-08-17T13:39:18.687Z,13.93
2022-08-17T13:41:46.485Z,15.70
2022-08-17T13:44:37.119Z,13.50
2022-08-17T13:47:17.499Z,14.33
2022-08-17T13:49:48.870Z,14.60
2022-08-17T13:52:38.019Z,14.13
2022-08-17T13:55:14.902Z,14.60
2022-08-17T13:57:46.584Z,16.77
2022-08-17T14:00:34.240Z,15.17
2022-08-17T14:03:03.272Z,14.90
2022-08-17T14:05:31.100Z,16.13
2022-08-17T14:08:06.913Z,16.17
2022-08-17T14:10:36.309Z,17.13
2022-08-17T14:13:03.361Z,18.53
2022-08-17T14:15:55.078Z,16.53
2022-08-17T14:18:18.021Z,17.57
2022-08-17T14:21:02.230Z,18.50
2022-08-17T14:23:32.863Z,17.90
2022-08-17T14:25:59.829Z,18.03
2022-08-17T14:28:26.531Z,21.23
2022-08-17T14:30:54.446Z,18.33
2022-08-17T14:33:24.618Z,17.27
2022-08-17T14:35:53.458Z,18.33
2022-08-17T14:38:20.731Z,17.80
2022-08-17T14:40:47.964Z,16.77
2022-08-17T14:43:15.863Z,17.43
2022-08-17T14:45:42.992Z,18.07
2022-08-17T14:48:10.308Z,17.73
2022-08-17T14:50:40.881Z,17.93
2022-08-17T14:53:09.815Z,16.53
2022-08-17T14:55:39.663Z,18.10
2022-08-17T14:58:07.426Z,19.10
2022-08-17T15:00:34.176Z,18.70
2022-08-17T15:03:01.496Z,17.97
2022-08-17T15:05:31.961Z,17.47
2022-08-17T15:07:59.033Z,20.63
2022-08-17T15:10:26.069Z,18.87
2022-08-17T15:12:52.545Z,18.27
2022-08-17T15:15:19.089Z,18.20
2022-08-17T15:17:46.156Z,16.97
2022-08-17T15:20:15.950Z,19.57
2022-08-17T15:22:43.667Z,17.83
2022-08-17T15:25:12.181Z,16.87
2022-08-17T15:27:39.498Z,18.03
2022-08-17T15:30:07.110Z,16.67
2022-08-17T15:32:38.163Z,18.17
2022-08-17T15:35:08.795Z,17.27
2022-08-17T15:37:35.370Z,19.30
2022-08-17T15:40:02.010Z,18.73
2022-08-17T15:42:29.269Z,20.20
2022-08-17T15:44:55.905Z,19.93
2022-08-17T15:47:23.117Z,19.67
2022-08-17T15:49:50.641Z,17.37
2022-08-17T15:52:23.222Z,20.53
2022-08-17T15:54:58.219Z,20.00
2022-08-17T15:57:25.775Z,20.83
2022-08-17T15:59:58.509Z,20.17
2022-08-17T16:03:14.193Z,21.43
2022-08-17T16:05:22.002Z,19.67
2022-08-17T16:07:51.473Z,19.97
2022-08-17T16:10:19.278Z,20.63
2022-08-17T16:12:47.657Z,20.97
2022-08-17T16:15:15.105Z,19.43
2022-08-17T16:17:41.708Z,19.30
2022-08-17T16:20:10.410Z,19.43
2022-08-17T16:22:48.801Z,20.73
2022-08-17T16:25:20.891Z,19.37
2022-08-17T16:27:50.404Z,19.07
2022-08-17T16:30:17.863Z,17.20
2022-08-17T16:32:45.341Z,19.80
2022-08-17T16:35:16.111Z,19.03
2022-08-17T16:37:45.549Z,18.13
2022-08-17T16:40:14.229Z,18.90
2022-08-17T16:42:42.775Z,19.27
2022-08-17T16:45:14.583Z,17.13
2022-08-17T16:47:41.917Z,18.20
2022-08-17T16:50:11.647Z,20.50
2022-08-17T16:52:40.511Z,17.83
2022-08-17T16:55:09.555Z,18.63
2022-08-17T16:57:50.412Z,18.87
2022-08-17T17:00:19.227Z,16.37
2022-08-17T17:02:47.571Z,19.43
2022-08-17T17:05:42.310Z,16.23
2022-08-17T17:08:13.148Z,18.53
2022-08-17T17:10:47.529Z,19.10
2022-08-17T17:13:25.181Z,19.33
2022-08-17T17:16:14.372Z,17.27
2022-08-17T17:18:49.550Z,17.87
2022-08-17T17:21:23.676Z,19.27
2022-08-17T17:23:57.000Z,15.73
2022-08-17T17:26:45.496Z,19.07
2022-08-17T17:29:58.044Z,19.30
2022-08-17T17:32:55.740Z,16.40
2022-08-17T17:35:31.871Z,19.07
2022-08-17T17:38:04.265Z,16.63
2022-08-17T17:40:44.292Z,19.10
2022-08-17T17:43:37.550Z,19.57
2022-08-17T17:46:27.281Z,20.80
2022-08-17T17:48:56.513Z,18.10
2022-08-17T17:52:06.567Z,23.37
2022-08-17T17:54:53.944Z,23.53
2022-08-17T17:57:58.667Z,23.23
2022-08-17T18:00:34.106Z,23.57
2022-08-17T18:03:25.147Z,24.27
2022-08-17T18:06:01.201Z,22.70
2022-08-17T18:09:19.369Z,23.63
2022-08-17T18:12:19.865Z,23.93
2022-08-17T18:15:07.545Z,21.40
2022-08-17T18:17:36.216Z,23.33
2022-08-17T18:20:06.850Z,23.73
2022-08-17T18:22:33.277Z,23.00
2022-08-17T18:24:59.828Z,22.87
2022-08-17T18:27:38.275Z,22.90
2022-08-17T18:30:10.767Z,24.20
2022-08-17T18:32:42.422Z,23.27
2022-08-17T18:35:08.763Z,24.17
2022-08-17T18:37:49.029Z,24.83
2022-08-17T18:40:19.388Z,24.00
2022-08-17T18:43:08.837Z,23.77
2022-08-17T18:45:38.450Z,24.07
2022-08-17T18:48:16.498Z,24.37
2022-08-17T18:50:42.945Z,24.07
2022-08-17T18:53:36.545Z,24.93
2022-08-17T18:56:27.932Z,21.50
2022-08-17T18:59:23.085Z,21.20
2022-08-17T19:02:10.009Z,22.27
2022-08-17T19:05:00.339Z,16.83
2022-08-17T19:07:33.018Z,21.67
2022-08-17T19:10:08.994Z,22.20
2022-08-17T19:12:43.846Z,23.93
2022-08-17T19:15:14.719Z,19.40
2022-08-17T19:17:53.337Z,22.77
2022-08-17T19:20:26.540Z,21.57
2022-08-17T19:23:12.644Z,22.57
2022-08-17T19:25:46.148Z,20.97
2022-08-17T19:28:29.717Z,22.63
2022-08-17T19:31:03.996Z,20.93
2022-08-17T19:33:32.060Z,20.43
2022-08-17T19:36:18.752Z,22.83
2022-08-17T19:39:10.009Z,20.23
2022-08-17T19:42:03.119Z,19.03
2022-08-17T19:44:40.374Z,19.33
2022-08-17T19:47:36.650Z,19.47
2022-08-17T19:50:18.899Z,18.13
2022-08-17T19:52:59.149Z,17.93
2022-08-17T19:55:32.001Z,17.07
2022-08-17T19:58:21.457Z,18.30
2022-08-17T20:00:51.684Z,16.23
2022-08-17T20:03:30.211Z,17.57
2022-08-17T20:06:15.277Z,17.40
2022-08-17T20:08:53.627Z,18.03
2022-08-17T20:11:37.535Z,17.53
2022-08-17T20:14:13.081Z,17.63
2022-08-17T20:16:39.491Z,16.77
2022-08-17T20:19:25.017Z,16.40
2022-08-17T20:22:03.250Z,16.30
2022-08-17T20:24:50.947Z,15.90
2022-08-17T20:27:31.958Z,16.37
2022-08-17T20:30:06.957Z,15.87
2022-08-17T20:32:52.586Z,15.53
2022-08-17T20:35:28.323Z,16.47
2022-08-17T20:37:59.154Z,15.73
2022-08-17T20:40:38.339Z,15.90
2022-08-17T20:43:29.801Z,15.93
2022-08-17T20:46:15.578Z,16.00
2022-08-17T20:48:46.116Z,16.00
2022-08-17T20:51:22.897Z,15.83
2022-08-17T20:53:49.337Z,16.20
2022-08-17T20:56:46.877Z,16.30
2022-08-17T20:59:25.668Z,16.00
2022-08-17T21:02:18.769Z,15.93
2022-08-17T21:04:52.761Z,15.07
2022-08-17T21:07:30.298Z,16.23
2022-08-17T21:10:17.722Z,16.60
2022-08-17T21:13:06.004Z,16.97
2022-08-17T21:15:43.521Z,16.93
2022-08-17T21:18:44.134Z,18.73
2022-08-17T21:21:17.706Z,17.03
2022-08-17T21:24:16.367Z,17.37
2022-08-17T21:27:17.780Z,19.53
2022-08-17T21:30:10.267Z,20.07
2022-08-17T21:32:41.973Z,20.00
2022-08-17T21:35:12.365Z,19.13
2022-08-17T21:37:53.119Z,19.53
2022-08-17T21:40:25.810Z,19.33
2022-08-17T21:43:00.281Z,19.70
2022-08-17T21:45:30.439Z,20.43
2022-08-17T21:48:19.559Z,21.57
2022-08-17T21:50:57.910Z,20.70
2022-08-17T21:53:53.932Z,18.60
2022-08-17T21:56:32.003Z,20.03
2022-08-17T21:59:00.673Z,19.43
2022-08-17T22:01:57.557Z,19.03
2022-08-17T22:04:28.972Z,19.13
2022-08-17T22:06:58.085Z,18.87
2022-08-17T22:09:28.589Z,18.10
2022-08-17T22:12:07.389Z,18.50
2022-08-17T22:14:53.044Z,19.20
2022-08-17T22:17:35.489Z,19.17
2022-08-17T22:20:06.922Z,18.70
2022-08-17T22:22:57.167Z,17.40
2022-08-17T22:25:26.294Z,18.57
2022-08-17T22:28:00.213Z,17.77
2022-08-17T22:30:34.853Z,16.77
2022-08-17T22:33:31.276Z,15.53
2022-08-17T22:36:33.731Z,16.97
2022-08-17T22:39:04.024Z,17.20
2022-08-17T22:41:48.074Z,16.50
2022-08-17T22:44:26.111Z,15.83
2022-08-17T22:46:55.637Z,14.93
2022-08-17T22:49:29.178Z,16.10
2022-08-17T22:52:16.198Z,16.40
2022-08-17T22:55:08.320Z,13.90
2022-08-17T22:57:56.555Z,15.53
2022-08-17T23:00:41.084Z,15.17
2022-08-17T23:03:12.695Z,15.57
2022-08-17T23:05:43.493Z,14.70
2022-08-17T23:08:11.527Z,14.13
2022-08-17T23:10:41.225Z,13.90
2022-08-17T23:13:12.022Z,15.17
2022-08-17T23:15:40.606Z,14.33
2022-08-17T23:18:07.411Z,14.40
2022-08-17T23:20:36.313Z,14.43
2022-08-17T23:23:06.733Z,14.40
2022-08-17T23:25:35.029Z,14.60
2022-08-17T23:28:04.301Z,14.67
2022-08-17T23:30:33.078Z,14.20
2022-08-17T23:33:14.252Z,13.63
2022-08-17T23:35:41.125Z,13.50
2022-08-17T23:38:09.742Z,13.83
2022-08-17T23:40:37.677Z,12.90
2022-08-17T23:43:15.389Z,14.43
2022-08-17T23:45:53.946Z,13.40
2022-08-17T23:48:28.545Z,13.33
2022-08-17T23:51:04.721Z,12.90
2022-08-17T23:53:34.442Z,12.40
2022-08-17T23:56:09.296Z,12.67
2022-08-17T23:58:38.350Z,12.10
